sensor_id;sensor_type;location;lat;lon;timestamp;P1;durP1;ratioP1;P2;durP2;ratioP2
68944;SDS011;55984;48.790;8.990;2023-06-26T00:01:23;17.40;;;9.07;;
68944;SDS011;55984;48.790;8.990;2023-06-26T00:03:49;17.27;;;10.13;;
68944;SDS011;55984;48.790;8.990;2023-06-26T00:06:15;18.97;;;10.00;;
68944;SDS011;55984;48.790;8.990;2023-06-26T00:08:41;19.83;;;10.30;;
68944;SDS011;55984;48.790;8.990;2023-06-26T00:11:11;16.60;;;9.93;;
68944;SDS011;55984;48.790;8.990;2023-06-26T00:13:38;19.57;;;10.57;;
68944;SDS011;55984;48.790;8.990;2023-06-26T00:16:03;16.97;;;9.63;;
68944;SDS011;55984;48.790;8.990;2023-06-26T00:18:30;19.90;;;10.70;;
68944;SDS011;55984;48.790;8.990;2023-06-26T00:20:56;18.90;;;10.10;;
68944;SDS011;55984;48.790;8.990;2023-06-26T00:23:21;21.50;;;10.67;;
68944;SDS011;55984;48.790;8.990;2023-06-26T00:25:47;19.63;;;10.43;;
68944;SDS011;55984;48.790;8.990;2023-06-26T00:28:13;19.03;;;10.60;;
68944;SDS011;55984;48.790;8.990;2023-06-26T00:30:39;19.57;;;11.00;;
68944;SDS011;55984;48.790;8.990;2023-06-26T00:33:05;19.93;;;10.60;;
68944;SDS011;55984;48.790;8.990;2023-06-26T00:35:31;19.93;;;11.07;;
68944;SDS011;55984;48.790;8.990;2023-06-26T00:37:57;24.90;;;11.17;;
68944;SDS011;55984;48.790;8.990;2023-06-26T00:40:24;20.80;;;11.20;;
68944;SDS011;55984;48.790;8.990;2023-06-26T00:42:51;19.93;;;11.03;;
68944;SDS011;55984;48.790;8.990;2023-06-26T00:45:17;18.83;;;10.37;;
68944;SDS011;55984;48.790;8.990;2023-06-26T00:47:43;22.60;;;11.37;;
68944;SDS011;55984;48.790;8.990;2023-06-26T00:50:09;18.40;;;9.53;;
68944;SDS011;55984;48.790;8.990;2023-06-26T00:52:36;20.93;;;10.60;;
68944;SDS011;55984;48.790;8.990;2023-06-26T00:55:02;19.83;;;10.90;;
68944;SDS011;55984;48.790;8.990;2023-06-26T00:57:29;22.27;;;10.80;;
68944;SDS011;55984;48.790;8.990;2023-06-26T00:59:56;20.03;;;10.67;;
68944;SDS011;55984;48.790;8.990;2023-06-26T01:02:22;18.80;;;10.70;;
68944;SDS011;55984;48.790;8.990;2023-06-26T01:04:49;19.40;;;10.30;;
68944;SDS011;55984;48.790;8.990;2023-06-26T01:07:17;20.70;;;11.40;;
68944;SDS011;55984;48.790;8.990;2023-06-26T01:09:48;22.60;;;11.13;;
68944;SDS011;55984;48.790;8.990;2023-06-26T01:12:16;20.17;;;10.97;;
68944;SDS011;55984;48.790;8.990;2023-06-26T01:14:42;18.40;;;10.63;;
68944;SDS011;55984;48.790;8.990;2023-06-26T01:17:08;19.97;;;11.00;;
68944;SDS011;55984;48.790;8.990;2023-06-26T01:19:40;22.13;;;10.50;;
68944;SDS011;55984;48.790;8.990;2023-06-26T01:28:03;18.30;;;9.90;;
68944;SDS011;55984;48.790;8.990;2023-06-26T01:30:31;21.10;;;10.57;;
68944;SDS011;55984;48.790;8.990;2023-06-26T01:32:59;18.40;;;10.60;;
68944;SDS011;55984;48.790;8.990;2023-06-26T01:35:26;19.77;;;11.23;;
68944;SDS011;55984;48.790;8.990;2023-06-26T01:40:40;18.60;;;10.73;;
68944;SDS011;55984;48.790;8.990;2023-06-26T01:43:06;26.17;;;10.97;;
68944;SDS011;55984;48.790;8.990;2023-06-26T01:45:50;19.87;;;11.00;;
68944;SDS011;55984;48.790;8.990;2023-06-26T01:48:22;19.93;;;11.00;;
68944;SDS011;55984;48.790;8.990;2023-06-26T01:50:52;22.30;;;12.30;;
68944;SDS011;55984;48.790;8.990;2023-06-26T01:53:21;20.20;;;10.80;;
68944;SDS011;55984;48.790;8.990;2023-06-26T01:55:55;22.43;;;10.90;;
68944;SDS011;55984;48.790;8.990;2023-06-26T01:58:28;20.40;;;11.67;;
68944;SDS011;55984;48.790;8.990;2023-06-26T02:00:56;25.50;;;11.17;;
68944;SDS011;55984;48.790;8.990;2023-06-26T02:03:22;20.53;;;10.73;;
68944;SDS011;55984;48.790;8.990;2023-06-26T02:05:49;23.00;;;11.10;;
68944;SDS011;55984;48.790;8.990;2023-06-26T02:08:16;22.37;;;11.43;;
68944;SDS011;55984;48.790;8.990;2023-06-26T02:10:42;20.80;;;11.03;;
68944;SDS011;55984;48.790;8.990;2023-06-26T02:13:08;24.73;;;10.50;;
68944;SDS011;55984;48.790;8.990;2023-06-26T02:15:34;21.53;;;10.50;;
68944;SDS011;55984;48.790;8.990;2023-06-26T02:18:00;21.10;;;11.60;;
68944;SDS011;55984;48.790;8.990;2023-06-26T02:20:26;19.77;;;10.77;;
68944;SDS011;55984;48.790;8.990;2023-06-26T02:22:52;21.20;;;11.50;;
68944;SDS011;55984;48.790;8.990;2023-06-26T02:25:18;24.27;;;12.27;;
68944;SDS011;55984;48.790;8.990;2023-06-26T02:27:51;23.50;;;11.50;;
68944;SDS011;55984;48.790;8.990;2023-06-26T02:30:26;18.90;;;10.80;;
68944;SDS011;55984;48.790;8.990;2023-06-26T02:32:52;20.37;;;11.10;;
68944;SDS011;55984;48.790;8.990;2023-06-26T02:35:18;21.07;;;11.13;;
68944;SDS011;55984;48.790;8.990;2023-06-26T02:37:44;21.57;;;12.17;;
68944;SDS011;55984;48.790;8.990;2023-06-26T02:40:10;20.67;;;11.40;;
68944;SDS011;55984;48.790;8.990;2023-06-26T02:42:36;21.20;;;11.80;;
68944;SDS011;55984;48.790;8.990;2023-06-26T02:45:02;22.83;;;11.33;;
68944;SDS011;55984;48.790;8.990;2023-06-26T02:47:29;26.03;;;11.40;;
68944;SDS011;55984;48.790;8.990;2023-06-26T02:49:55;22.57;;;11.10;;
68944;SDS011;55984;48.790;8.990;2023-06-26T02:52:20;21.70;;;11.50;;
68944;SDS011;55984;48.790;8.990;2023-06-26T02:54:46;24.87;;;12.07;;
68944;SDS011;55984;48.790;8.990;2023-06-26T02:57:12;20.00;;;10.33;;
68944;SDS011;55984;48.790;8.990;2023-06-26T02:59:42;22.33;;;11.73;;
68944;SDS011;55984;48.790;8.990;2023-06-26T03:02:08;20.87;;;11.60;;
68944;SDS011;55984;48.790;8.990;2023-06-26T03:04:34;26.27;;;12.17;;
68944;SDS011;55984;48.790;8.990;2023-06-26T03:07:01;23.53;;;12.20;;
68944;SDS011;55984;48.790;8.990;2023-06-26T03:09:28;22.63;;;11.00;;
68944;SDS011;55984;48.790;8.990;2023-06-26T03:11:54;23.30;;;12.40;;
68944;SDS011;55984;48.790;8.990;2023-06-26T03:14:20;20.63;;;11.53;;
68944;SDS011;55984;48.790;8.990;2023-06-26T03:16:46;20.40;;;11.80;;
68944;SDS011;55984;48.790;8.990;2023-06-26T03:19:13;21.83;;;11.60;;
68944;SDS011;55984;48.790;8.990;2023-06-26T03:21:39;21.90;;;10.67;;
68944;SDS011;55984;48.790;8.990;2023-06-26T03:24:05;20.07;;;10.63;;
68944;SDS011;55984;48.790;8.990;2023-06-26T03:26:31;24.33;;;12.10;;
68944;SDS011;55984;48.790;8.990;2023-06-26T03:28:57;20.00;;;11.10;;
68944;SDS011;55984;48.790;8.990;2023-06-26T03:31:23;22.53;;;11.87;;
68944;SDS011;55984;48.790;8.990;2023-06-26T03:33:49;22.70;;;12.20;;
68944;SDS011;55984;48.790;8.990;2023-06-26T03:36:15;22.90;;;12.13;;
68944;SDS011;55984;48.790;8.990;2023-06-26T03:38:41;21.70;;;11.07;;
68944;SDS011;55984;48.790;8.990;2023-06-26T03:41:07;21.13;;;11.43;;
68944;SDS011;55984;48.790;8.990;2023-06-26T03:43:33;19.63;;;11.20;;
68944;SDS011;55984;48.790;8.990;2023-06-26T03:45:59;22.67;;;11.57;;
68944;SDS011;55984;48.790;8.990;2023-06-26T03:48:25;21.40;;;10.93;;
68944;SDS011;55984;48.790;8.990;2023-06-26T03:50:51;19.03;;;10.47;;
68944;SDS011;55984;48.790;8.990;2023-06-26T03:53:17;20.10;;;10.77;;
68944;SDS011;55984;48.790;8.990;2023-06-26T03:55:43;23.40;;;11.30;;
68944;SDS011;55984;48.790;8.990;2023-06-26T03:58:09;19.97;;;10.63;;
68944;SDS011;55984;48.790;8.990;2023-06-26T04:00:37;24.50;;;12.10;;
68944;SDS011;55984;48.790;8.990;2023-06-26T04:03:03;18.93;;;10.33;;
68944;SDS011;55984;48.790;8.990;2023-06-26T04:05:29;19.00;;;11.30;;
68944;SDS011;55984;48.790;8.990;2023-06-26T04:07:55;19.67;;;10.87;;
68944;SDS011;55984;48.790;8.990;2023-06-26T04:10:21;20.40;;;10.83;;
68944;SDS011;55984;48.790;8.990;2023-06-26T04:12:47;19.63;;;10.97;;
68944;SDS011;55984;48.790;8.990;2023-06-26T04:15:13;19.27;;;11.10;;
68944;SDS011;55984;48.790;8.990;2023-06-26T04:17:40;20.70;;;11.60;;
68944;SDS011;55984;48.790;8.990;2023-06-26T04:20:06;18.10;;;10.50;;
68944;SDS011;55984;48.790;8.990;2023-06-26T04:22:33;24.03;;;11.27;;
68944;SDS011;55984;48.790;8.990;2023-06-26T04:25:02;21.67;;;11.20;;
68944;SDS011;55984;48.790;8.990;2023-06-26T04:30:12;19.77;;;10.90;;
68944;SDS011;55984;48.790;8.990;2023-06-26T04:32:38;19.27;;;10.10;;
68944;SDS011;55984;48.790;8.990;2023-06-26T04:35:04;18.67;;;11.00;;
68944;SDS011;55984;48.790;8.990;2023-06-26T04:37:30;21.03;;;11.00;;
68944;SDS011;55984;48.790;8.990;2023-06-26T04:39:56;19.43;;;10.60;;
68944;SDS011;55984;48.790;8.990;2023-06-26T04:42:22;20.37;;;10.43;;
68944;SDS011;55984;48.790;8.990;2023-06-26T04:44:48;18.60;;;9.80;;
68944;SDS011;55984;48.790;8.990;2023-06-26T04:47:15;18.97;;;9.90;;
68944;SDS011;55984;48.790;8.990;2023-06-26T04:49:41;16.33;;;9.83;;
68944;SDS011;55984;48.790;8.990;2023-06-26T04:52:11;15.07;;;8.90;;
68944;SDS011;55984;48.790;8.990;2023-06-26T04:54:38;17.20;;;9.80;;
68944;SDS011;55984;48.790;8.990;2023-06-26T04:57:04;19.47;;;10.47;;
68944;SDS011;55984;48.790;8.990;2023-06-26T04:59:31;16.80;;;9.47;;
68944;SDS011;55984;48.790;8.990;2023-06-26T05:01:57;16.17;;;9.73;;
68944;SDS011;55984;48.790;8.990;2023-06-26T05:04:23;17.53;;;9.90;;
68944;SDS011;55984;48.790;8.990;2023-06-26T05:06:49;24.47;;;9.67;;
68944;SDS011;55984;48.790;8.990;2023-06-26T05:09:15;16.10;;;9.83;;
68944;SDS011;55984;48.790;8.990;2023-06-26T05:11:41;15.10;;;9.10;;
68944;SDS011;55984;48.790;8.990;2023-06-26T05:14:07;16.50;;;9.10;;
68944;SDS011;55984;48.790;8.990;2023-06-26T05:16:34;14.53;;;8.30;;
68944;SDS011;55984;48.790;8.990;2023-06-26T05:19:01;15.97;;;9.00;;
68944;SDS011;55984;48.790;8.990;2023-06-26T05:21:27;14.97;;;8.87;;
68944;SDS011;55984;48.790;8.990;2023-06-26T05:23:54;14.70;;;8.60;;
68944;SDS011;55984;48.790;8.990;2023-06-26T05:26:22;12.67;;;8.17;;
68944;SDS011;55984;48.790;8.990;2023-06-26T05:28:48;14.23;;;8.50;;
68944;SDS011;55984;48.790;8.990;2023-06-26T05:31:20;13.77;;;8.53;;
68944;SDS011;55984;48.790;8.990;2023-06-26T05:33:47;13.90;;;7.97;;
68944;SDS011;55984;48.790;8.990;2023-06-26T05:36:16;12.93;;;8.20;;
68944;SDS011;55984;48.790;8.990;2023-06-26T05:38:42;16.80;;;9.27;;
68944;SDS011;55984;48.790;8.990;2023-06-26T05:41:08;13.80;;;8.33;;
68944;SDS011;55984;48.790;8.990;2023-06-26T05:43:34;16.93;;;8.50;;
68944;SDS011;55984;48.790;8.990;2023-06-26T05:46:02;15.27;;;8.90;;
68944;SDS011;55984;48.790;8.990;2023-06-26T05:48:27;17.70;;;8.97;;
68944;SDS011;55984;48.790;8.990;2023-06-26T05:50:55;13.00;;;8.60;;
68944;SDS011;55984;48.790;8.990;2023-06-26T05:53:21;10.67;;;7.43;;
68944;SDS011;55984;48.790;8.990;2023-06-26T05:55:47;15.27;;;8.10;;
68944;SDS011;55984;48.790;8.990;2023-06-26T05:58:14;14.90;;;8.50;;
68944;SDS011;55984;48.790;8.990;2023-06-26T06:00:42;11.30;;;8.13;;
68944;SDS011;55984;48.790;8.990;2023-06-26T06:03:09;12.37;;;8.30;;
68944;SDS011;55984;48.790;8.990;2023-06-26T06:05:36;12.17;;;7.83;;
68944;SDS011;55984;48.790;8.990;2023-06-26T06:08:02;20.03;;;8.10;;
68944;SDS011;55984;48.790;8.990;2023-06-26T06:10:28;22.13;;;7.73;;
68944;SDS011;55984;48.790;8.990;2023-06-26T06:12:54;18.00;;;7.93;;
68944;SDS011;55984;48.790;8.990;2023-06-26T06:15:19;12.13;;;7.20;;
68944;SDS011;55984;48.790;8.990;2023-06-26T06:17:47;22.03;;;8.70;;
68944;SDS011;55984;48.790;8.990;2023-06-26T06:20:13;14.10;;;8.40;;
68944;SDS011;55984;48.790;8.990;2023-06-26T06:22:39;13.63;;;8.13;;
68944;SDS011;55984;48.790;8.990;2023-06-26T06:25:05;17.83;;;8.40;;
68944;SDS011;55984;48.790;8.990;2023-06-26T06:27:32;13.47;;;8.50;;
68944;SDS011;55984;48.790;8.990;2023-06-26T06:29:58;14.80;;;8.20;;
68944;SDS011;55984;48.790;8.990;2023-06-26T06:32:24;17.10;;;8.73;;
68944;SDS011;55984;48.790;8.990;2023-06-26T06:34:50;13.07;;;8.30;;
68944;SDS011;55984;48.790;8.990;2023-06-26T06:37:16;11.80;;;8.13;;
68944;SDS011;55984;48.790;8.990;2023-06-26T06:39:42;13.60;;;8.50;;
68944;SDS011;55984;48.790;8.990;2023-06-26T06:42:11;11.43;;;8.33;;
68944;SDS011;55984;48.790;8.990;2023-06-26T06:44:37;13.97;;;7.90;;
68944;SDS011;55984;48.790;8.990;2023-06-26T06:47:03;15.67;;;8.70;;
68944;SDS011;55984;48.790;8.990;2023-06-26T06:49:29;12.03;;;8.20;;
68944;SDS011;55984;48.790;8.990;2023-06-26T06:51:56;12.33;;;8.00;;
68944;SDS011;55984;48.790;8.990;2023-06-26T06:54:25;13.63;;;8.20;;
68944;SDS011;55984;48.790;8.990;2023-06-26T06:56:53;12.23;;;7.90;;
68944;SDS011;55984;48.790;8.990;2023-06-26T06:59:19;13.50;;;7.90;;
68944;SDS011;55984;48.790;8.990;2023-06-26T07:01:44;12.97;;;8.13;;
68944;SDS011;55984;48.790;8.990;2023-06-26T07:04:10;22.60;;;8.80;;
68944;SDS011;55984;48.790;8.990;2023-06-26T07:06:36;12.43;;;8.07;;
68944;SDS011;55984;48.790;8.990;2023-06-26T07:09:03;10.63;;;7.80;;
68944;SDS011;55984;48.790;8.990;2023-06-26T07:11:30;12.33;;;7.67;;
68944;SDS011;55984;48.790;8.990;2023-06-26T07:13:56;10.23;;;7.80;;
68944;SDS011;55984;48.790;8.990;2023-06-26T07:16:26;10.37;;;7.17;;
68944;SDS011;55984;48.790;8.990;2023-06-26T07:18:54;12.23;;;7.97;;
68944;SDS011;55984;48.790;8.990;2023-06-26T07:21:20;12.70;;;7.70;;
68944;SDS011;55984;48.790;8.990;2023-06-26T07:26:19;9.97;;;6.67;;
68944;SDS011;55984;48.790;8.990;2023-06-26T07:28:47;9.20;;;6.80;;
68944;SDS011;55984;48.790;8.990;2023-06-26T07:31:30;10.43;;;7.27;;
68944;SDS011;55984;48.790;8.990;2023-06-26T07:33:56;10.40;;;6.87;;
68944;SDS011;55984;48.790;8.990;2023-06-26T07:36:41;10.00;;;6.97;;
68944;SDS011;55984;48.790;8.990;2023-06-26T07:39:07;9.37;;;6.83;;
68944;SDS011;55984;48.790;8.990;2023-06-26T07:41:33;9.97;;;7.13;;
68944;SDS011;55984;48.790;8.990;2023-06-26T07:43:59;12.20;;;6.47;;
68944;SDS011;55984;48.790;8.990;2023-06-26T07:46:25;10.70;;;7.00;;
68944;SDS011;55984;48.790;8.990;2023-06-26T07:48:53;10.07;;;6.80;;
68944;SDS011;55984;48.790;8.990;2023-06-26T07:51:20;8.87;;;6.60;;
68944;SDS011;55984;48.790;8.990;2023-06-26T07:53:46;9.80;;;6.20;;
68944;SDS011;55984;48.790;8.990;2023-06-26T07:56:13;8.80;;;6.97;;
68944;SDS011;55984;48.790;8.990;2023-06-26T07:58:39;8.90;;;6.90;;
68944;SDS011;55984;48.790;8.990;2023-06-26T08:01:05;12.23;;;7.43;;
68944;SDS011;55984;48.790;8.990;2023-06-26T08:03:31;8.50;;;6.30;;
68944;SDS011;55984;48.790;8.990;2023-06-26T08:05:57;9.23;;;6.40;;
68944;SDS011;55984;48.790;8.990;2023-06-26T08:08:30;10.10;;;7.00;;
68944;SDS011;55984;48.790;8.990;2023-06-26T08:10:56;11.73;;;7.20;;
68944;SDS011;55984;48.790;8.990;2023-06-26T08:13:22;14.33;;;6.90;;
68944;SDS011;55984;48.790;8.990;2023-06-26T08:15:48;9.30;;;7.00;;
68944;SDS011;55984;48.790;8.990;2023-06-26T08:18:14;8.73;;;6.83;;
68944;SDS011;55984;48.790;8.990;2023-06-26T08:20:40;10.53;;;7.50;;
68944;SDS011;55984;48.790;8.990;2023-06-26T08:23:17;13.47;;;7.60;;
68944;SDS011;55984;48.790;8.990;2023-06-26T08:25:43;13.60;;;7.10;;
68944;SDS011;55984;48.790;8.990;2023-06-26T08:28:13;8.50;;;6.83;;
68944;SDS011;55984;48.790;8.990;2023-06-26T08:30:39;8.93;;;7.00;;
68944;SDS011;55984;48.790;8.990;2023-06-26T08:33:08;10.20;;;7.30;;
68944;SDS011;55984;48.790;8.990;2023-06-26T08:35:37;10.33;;;7.27;;
68944;SDS011;55984;48.790;8.990;2023-06-26T08:38:03;10.00;;;7.10;;
68944;SDS011;55984;48.790;8.990;2023-06-26T08:40:29;13.47;;;9.70;;
68944;SDS011;55984;48.790;8.990;2023-06-26T08:42:57;9.70;;;7.70;;
68944;SDS011;55984;48.790;8.990;2023-06-26T08:45:23;8.53;;;6.93;;
68944;SDS011;55984;48.790;8.990;2023-06-26T08:47:51;11.83;;;7.17;;
68944;SDS011;55984;48.790;8.990;2023-06-26T08:50:21;9.30;;;7.20;;
68944;SDS011;55984;48.790;8.990;2023-06-26T08:55:46;10.27;;;7.20;;
68944;SDS011;55984;48.790;8.990;2023-06-26T08:58:14;9.40;;;7.27;;
68944;SDS011;55984;48.790;8.990;2023-06-26T09:00:53;11.03;;;7.63;;
68944;SDS011;55984;48.790;8.990;2023-06-26T09:03:25;10.73;;;7.77;;
68944;SDS011;55984;48.790;8.990;2023-06-26T09:05:51;11.07;;;7.50;;
68944;SDS011;55984;48.790;8.990;2023-06-26T09:08:17;9.80;;;7.30;;
68944;SDS011;55984;48.790;8.990;2023-06-26T09:10:43;9.20;;;7.20;;
68944;SDS011;55984;48.790;8.990;2023-06-26T09:13:09;12.43;;;7.50;;
68944;SDS011;55984;48.790;8.990;2023-06-26T09:15:42;13.10;;;7.53;;
68944;SDS011;55984;48.790;8.990;2023-06-26T09:18:09;12.03;;;7.40;;
68944;SDS011;55984;48.790;8.990;2023-06-26T09:20:37;10.40;;;7.53;;
68944;SDS011;55984;48.790;8.990;2023-06-26T09:23:03;10.30;;;7.87;;
68944;SDS011;55984;48.790;8.990;2023-06-26T09:25:31;10.60;;;8.30;;
68944;SDS011;55984;48.790;8.990;2023-06-26T09:27:57;11.63;;;7.93;;
68944;SDS011;55984;48.790;8.990;2023-06-26T09:30:24;11.13;;;7.73;;
68944;SDS011;55984;48.790;8.990;2023-06-26T09:32:50;11.17;;;7.77;;
68944;SDS011;55984;48.790;8.990;2023-06-26T09:35:19;9.40;;;7.40;;
68944;SDS011;55984;48.790;8.990;2023-06-26T09:37:45;8.80;;;7.23;;
68944;SDS011;55984;48.790;8.990;2023-06-26T09:40:11;9.43;;;7.57;;
68944;SDS011;55984;48.790;8.990;2023-06-26T09:42:37;12.80;;;7.87;;
68944;SDS011;55984;48.790;8.990;2023-06-26T09:45:03;9.07;;;7.00;;
68944;SDS011;55984;48.790;8.990;2023-06-26T09:47:33;12.50;;;7.70;;
68944;SDS011;55984;48.790;8.990;2023-06-26T09:50:02;10.73;;;7.93;;
68944;SDS011;55984;48.790;8.990;2023-06-26T09:52:29;10.20;;;7.40;;
68944;SDS011;55984;48.790;8.990;2023-06-26T09:55:19;10.50;;;7.67;;
68944;SDS011;55984;48.790;8.990;2023-06-26T09:57:46;11.20;;;7.40;;
68944;SDS011;55984;48.790;8.990;2023-06-26T10:00:13;9.67;;;7.60;;
68944;SDS011;55984;48.790;8.990;2023-06-26T10:02:40;10.73;;;8.33;;
68944;SDS011;55984;48.790;8.990;2023-06-26T10:05:06;10.53;;;7.53;;
68944;SDS011;55984;48.790;8.990;2023-06-26T10:07:32;11.00;;;8.60;;
68944;SDS011;55984;48.790;8.990;2023-06-26T10:10:00;13.17;;;9.00;;
68944;SDS011;55984;48.790;8.990;2023-06-26T10:12:29;11.63;;;8.33;;
68944;SDS011;55984;48.790;8.990;2023-06-26T10:14:56;12.10;;;9.20;;
68944;SDS011;55984;48.790;8.990;2023-06-26T10:17:26;16.70;;;7.97;;
68944;SDS011;55984;48.790;8.990;2023-06-26T10:19:57;21.33;;;9.20;;
68944;SDS011;55984;48.790;8.990;2023-06-26T10:22:27;13.80;;;8.57;;
68944;SDS011;55984;48.790;8.990;2023-06-26T10:24:58;13.37;;;8.37;;
68944;SDS011;55984;48.790;8.990;2023-06-26T10:27:28;16.37;;;8.40;;
68944;SDS011;55984;48.790;8.990;2023-06-26T10:30:00;12.63;;;8.60;;
68944;SDS011;55984;48.790;8.990;2023-06-26T10:32:30;12.83;;;9.00;;
68944;SDS011;55984;48.790;8.990;2023-06-26T10:34:57;11.63;;;8.83;;
68944;SDS011;55984;48.790;8.990;2023-06-26T10:40:12;12.87;;;8.90;;
68944;SDS011;55984;48.790;8.990;2023-06-26T10:42:46;16.50;;;8.67;;
68944;SDS011;55984;48.790;8.990;2023-06-26T10:47:42;12.60;;;8.70;;
68944;SDS011;55984;48.790;8.990;2023-06-26T10:50:21;13.83;;;8.37;;
68944;SDS011;55984;48.790;8.990;2023-06-26T10:53:07;11.00;;;8.87;;
68944;SDS011;55984;48.790;8.990;2023-06-26T10:55:36;15.83;;;9.03;;
68944;SDS011;55984;48.790;8.990;2023-06-26T10:58:29;12.77;;;8.83;;
68944;SDS011;55984;48.790;8.990;2023-06-26T11:03:59;12.70;;;8.90;;
68944;SDS011;55984;48.790;8.990;2023-06-26T11:06:29;13.50;;;8.80;;
68944;SDS011;55984;48.790;8.990;2023-06-26T11:09:13;16.43;;;8.60;;
68944;SDS011;55984;48.790;8.990;2023-06-26T11:14:20;14.40;;;9.60;;
68944;SDS011;55984;48.790;8.990;2023-06-26T11:16:48;11.73;;;8.80;;
68944;SDS011;55984;48.790;8.990;2023-06-26T11:19:16;13.77;;;8.70;;
68944;SDS011;55984;48.790;8.990;2023-06-26T11:21:43;13.10;;;8.60;;
68944;SDS011;55984;48.790;8.990;2023-06-26T11:24:10;13.50;;;9.20;;
68944;SDS011;55984;48.790;8.990;2023-06-26T11:26:37;12.40;;;9.17;;
68944;SDS011;55984;48.790;8.990;2023-06-26T11:29:07;11.50;;;9.00;;
68944;SDS011;55984;48.790;8.990;2023-06-26T11:31:34;11.60;;;9.13;;
68944;SDS011;55984;48.790;8.990;2023-06-26T11:34:03;11.17;;;8.80;;
68944;SDS011;55984;48.790;8.990;2023-06-26T11:36:35;11.80;;;8.07;;
68944;SDS011;55984;48.790;8.990;2023-06-26T11:39:02;13.10;;;8.60;;
68944;SDS011;55984;48.790;8.990;2023-06-26T11:41:33;11.70;;;9.03;;
68944;SDS011;55984;48.790;8.990;2023-06-26T11:44:04;11.70;;;8.70;;
68944;SDS011;55984;48.790;8.990;2023-06-26T11:46:36;11.80;;;8.50;;
68944;SDS011;55984;48.790;8.990;2023-06-26T11:49:03;14.07;;;8.50;;
68944;SDS011;55984;48.790;8.990;2023-06-26T11:51:30;12.03;;;8.37;;
68944;SDS011;55984;48.790;8.990;2023-06-26T11:54:00;11.00;;;8.60;;
68944;SDS011;55984;48.790;8.990;2023-06-26T11:56:31;12.50;;;8.53;;
68944;SDS011;55984;48.790;8.990;2023-06-26T11:59:04;11.53;;;8.47;;
68944;SDS011;55984;48.790;8.990;2023-06-26T12:01:41;10.80;;;8.50;;
68944;SDS011;55984;48.790;8.990;2023-06-26T12:04:12;17.53;;;9.30;;
68944;SDS011;55984;48.790;8.990;2023-06-26T12:06:47;10.57;;;8.00;;
68944;SDS011;55984;48.790;8.990;2023-06-26T12:09:16;13.20;;;8.70;;
68944;SDS011;55984;48.790;8.990;2023-06-26T12:11:46;12.97;;;8.50;;
68944;SDS011;55984;48.790;8.990;2023-06-26T12:14:13;11.97;;;8.27;;
68944;SDS011;55984;48.790;8.990;2023-06-26T12:16:42;12.40;;;8.80;;
68944;SDS011;55984;48.790;8.990;2023-06-26T12:19:08;11.03;;;7.90;;
68944;SDS011;55984;48.790;8.990;2023-06-26T12:24:03;12.07;;;8.10;;
68944;SDS011;55984;48.790;8.990;2023-06-26T12:26:32;12.43;;;8.30;;
68944;SDS011;55984;48.790;8.990;2023-06-26T12:29:09;15.43;;;8.23;;
68944;SDS011;55984;48.790;8.990;2023-06-26T12:31:41;11.47;;;8.23;;
68944;SDS011;55984;48.790;8.990;2023-06-26T12:34:14;11.60;;;7.60;;
68944;SDS011;55984;48.790;8.990;2023-06-26T12:36:46;10.37;;;8.03;;
68944;SDS011;55984;48.790;8.990;2023-06-26T12:39:18;11.60;;;8.17;;
68944;SDS011;55984;48.790;8.990;2023-06-26T12:41:51;11.33;;;8.10;;
68944;SDS011;55984;48.790;8.990;2023-06-26T12:44:20;12.23;;;8.43;;
68944;SDS011;55984;48.790;8.990;2023-06-26T12:46:56;17.50;;;8.07;;
68944;SDS011;55984;48.790;8.990;2023-06-26T12:49:45;12.60;;;8.13;;
68944;SDS011;55984;48.790;8.990;2023-06-26T12:52:15;11.37;;;8.23;;
68944;SDS011;55984;48.790;8.990;2023-06-26T12:54:45;12.30;;;7.90;;
68944;SDS011;55984;48.790;8.990;2023-06-26T12:57:12;11.77;;;7.83;;
68944;SDS011;55984;48.790;8.990;2023-06-26T12:59:39;10.60;;;7.80;;
68944;SDS011;55984;48.790;8.990;2023-06-26T13:02:07;12.50;;;7.80;;
68944;SDS011;55984;48.790;8.990;2023-06-26T13:04:34;15.07;;;8.20;;
68944;SDS011;55984;48.790;8.990;2023-06-26T13:07:01;11.50;;;7.70;;
68944;SDS011;55984;48.790;8.990;2023-06-26T13:09:31;11.37;;;7.33;;
68944;SDS011;55984;48.790;8.990;2023-06-26T13:11:58;10.17;;;6.77;;
68944;SDS011;55984;48.790;8.990;2023-06-26T13:14:25;13.83;;;6.90;;
68944;SDS011;55984;48.790;8.990;2023-06-26T13:16:51;10.90;;;7.30;;
68944;SDS011;55984;48.790;8.990;2023-06-26T13:19:17;10.13;;;6.63;;
68944;SDS011;55984;48.790;8.990;2023-06-26T13:21:43;10.23;;;7.10;;
68944;SDS011;55984;48.790;8.990;2023-06-26T13:24:09;13.03;;;6.87;;
68944;SDS011;55984;48.790;8.990;2023-06-26T13:26:36;8.50;;;6.20;;
68944;SDS011;55984;48.790;8.990;2023-06-26T13:29:02;11.33;;;7.00;;
68944;SDS011;55984;48.790;8.990;2023-06-26T13:31:28;16.93;;;7.07;;
68944;SDS011;55984;48.790;8.990;2023-06-26T13:33:56;10.30;;;6.67;;
68944;SDS011;55984;48.790;8.990;2023-06-26T13:36:23;10.73;;;6.40;;
68944;SDS011;55984;48.790;8.990;2023-06-26T13:38:50;13.90;;;6.57;;
68944;SDS011;55984;48.790;8.990;2023-06-26T13:41:23;9.90;;;6.50;;
68944;SDS011;55984;48.790;8.990;2023-06-26T13:43:50;10.00;;;7.20;;
68944;SDS011;55984;48.790;8.990;2023-06-26T13:46:16;8.77;;;6.10;;
68944;SDS011;55984;48.790;8.990;2023-06-26T13:48:43;12.07;;;6.20;;
68944;SDS011;55984;48.790;8.990;2023-06-26T13:51:10;10.30;;;6.13;;
68944;SDS011;55984;48.790;8.990;2023-06-26T13:53:36;9.23;;;5.63;;
68944;SDS011;55984;48.790;8.990;2023-06-26T13:56:02;12.20;;;6.10;;
68944;SDS011;55984;48.790;8.990;2023-06-26T13:58:28;8.97;;;5.33;;
68944;SDS011;55984;48.790;8.990;2023-06-26T14:00:54;7.80;;;5.47;;
68944;SDS011;55984;48.790;8.990;2023-06-26T14:03:20;7.63;;;5.43;;
68944;SDS011;55984;48.790;8.990;2023-06-26T14:05:47;7.57;;;5.37;;
68944;SDS011;55984;48.790;8.990;2023-06-26T14:08:14;7.50;;;5.30;;
68944;SDS011;55984;48.790;8.990;2023-06-26T14:10:39;8.00;;;5.20;;
68944;SDS011;55984;48.790;8.990;2023-06-26T14:13:06;8.70;;;5.40;;
68944;SDS011;55984;48.790;8.990;2023-06-26T14:15:33;7.10;;;4.50;;
68944;SDS011;55984;48.790;8.990;2023-06-26T14:18:00;6.97;;;4.73;;
68944;SDS011;55984;48.790;8.990;2023-06-26T14:20:27;7.40;;;4.93;;
68944;SDS011;55984;48.790;8.990;2023-06-26T14:22:55;6.90;;;4.73;;
68944;SDS011;55984;48.790;8.990;2023-06-26T14:25:21;8.30;;;4.93;;
68944;SDS011;55984;48.790;8.990;2023-06-26T14:30:26;6.90;;;5.00;;
68944;SDS011;55984;48.790;8.990;2023-06-26T14:33:06;8.20;;;5.07;;
68944;SDS011;55984;48.790;8.990;2023-06-26T14:35:32;11.73;;;5.23;;
68944;SDS011;55984;48.790;8.990;2023-06-26T14:37:58;10.97;;;5.37;;
68944;SDS011;55984;48.790;8.990;2023-06-26T14:40:24;7.00;;;4.80;;
68944;SDS011;55984;48.790;8.990;2023-06-26T14:42:50;9.80;;;4.80;;
68944;SDS011;55984;48.790;8.990;2023-06-26T14:45:18;7.30;;;4.43;;
68944;SDS011;55984;48.790;8.990;2023-06-26T14:47:44;11.47;;;5.17;;
68944;SDS011;55984;48.790;8.990;2023-06-26T14:50:10;7.57;;;5.33;;
68944;SDS011;55984;48.790;8.990;2023-06-26T14:52:36;8.60;;;4.90;;
68944;SDS011;55984;48.790;8.990;2023-06-26T14:55:02;7.73;;;5.00;;
68944;SDS011;55984;48.790;8.990;2023-06-26T14:57:29;13.53;;;5.17;;
68944;SDS011;55984;48.790;8.990;2023-06-26T14:59:56;10.90;;;5.50;;
68944;SDS011;55984;48.790;8.990;2023-06-26T15:02:22;10.60;;;5.63;;
68944;SDS011;55984;48.790;8.990;2023-06-26T15:04:48;9.10;;;6.23;;
68944;SDS011;55984;48.790;8.990;2023-06-26T15:07:14;11.33;;;6.13;;
68944;SDS011;55984;48.790;8.990;2023-06-26T15:09:40;9.67;;;6.10;;